Terminal Aerodrome Forecast
Issued by NWS New Orleans/Baton Rouge, LA

Home | Current Version | Previous Version | Text Only | Print | Product List | Glossary On
Versions: 1 2 3 4 5 6 7 8 9 10 11 12 13 14 15 16
000
FTUS44 KLIX 270713 AAA
TAFBTR
TAF AMD
KBTR 270713Z 2707/2806 07006KT P6SM VCSH BKN025 OVC035
     FM270900 14008KT P6SM -SHRA VCTS OVC020CB
     FM271200 15007KT 6SM -SHRA VCTS OVC010CB
      TEMPO 2712/2715 2SM TSRA OVC003CB
     FM271500 16009KT 5SM SHRA VCTS BKN015CB
     FM271800 19009KT P6SM SHRA VCTS OVC040CB
     FM272200 17008KT P6SM BKN035
     FM280300 16008KT P6SM BKN008=

USA.gov is the U.S. government's official web portal to all federal, state and local government web resources and services.